ウランバートル の空港の天気 - METARとTAF

チンギスハーン国際空港 ( ZMUB / ULN ) - モンゴル ウランバートル
飛行場実況気象(Metar)
観測時間04/22 01:00 ULAT (04/21 17:00 UTC)
風向・風速南東 3m/s
視程10km以上
天気現象
少しの雲 雲底高度 1010m
気温3℃
湿度52%
気圧1001hPa
METARZMUB 211700Z 13003MPS 9999 FEW033 03/M06 Q1001 NOSIG RMK QFE645.1 55 NT
過去の天気等 Google飛行場航空写真 Wunderground天気予報

過去48時間のMETAR

飛行場予報(TAF)
発表時間: 4/21 18:40 ULAT (4/21 10:40 UTC)
予報対象時間: 21日20時 ULAT ~ 23日2時 ULAT
風向・風速不定 2m/s
視程10km以上
全天の4割程度の雲 雲底高度 1010m
全天の4割程度の雲 雲底高度 3050m
22日9時 ULAT ~ 22日11時 ULAT に徐々に
風向・風速北北西 8m/s
22日19時 ULAT ~ 22日21時 ULAT に徐々に
風向・風速不定 2m/s
TAF ZMUB 211040Z 2112/2218 VRB02MPS 9999 SCT033 SCT100 TNM01/2123Z TX10/2207Z
BECMG 2201/2203 34008MPS
BECMG 2211/2213 VRB02MPS